sensor_id;sensor_type;location;lat;lon;timestamp;temperature;humidity
21115;DHT22;10715;48.546;9.896;2024-01-11T00:00:14;-7.40;99.90
21115;DHT22;10715;48.546;9.896;2024-01-11T00:02:40;-7.40;99.90
21115;DHT22;10715;48.546;9.896;2024-01-11T00:05:06;-7.40;99.90
21115;DHT22;10715;48.546;9.896;2024-01-11T00:07:32;-7.50;99.90
21115;DHT22;10715;48.546;9.896;2024-01-11T00:09:58;-7.50;99.90
21115;DHT22;10715;48.546;9.896;2024-01-11T00:12:23;-7.50;99.90
21115;DHT22;10715;48.546;9.896;2024-01-11T00:14:49;-7.60;99.90
21115;DHT22;10715;48.546;9.896;2024-01-11T00:17:15;-7.60;99.90
21115;DHT22;10715;48.546;9.896;2024-01-11T00:19:41;-7.70;99.90
21115;DHT22;10715;48.546;9.896;2024-01-11T00:22:07;-7.70;99.90
21115;DHT22;10715;48.546;9.896;2024-01-11T00:24:33;-7.80;99.90
21115;DHT22;10715;48.546;9.896;2024-01-11T00:26:58;-7.80;99.90
21115;DHT22;10715;48.546;9.896;2024-01-11T00:29:24;-7.90;99.90
21115;DHT22;10715;48.546;9.896;2024-01-11T00:31:50;-7.90;99.90
21115;DHT22;10715;48.546;9.896;2024-01-11T00:34:16;-8.00;99.90
21115;DHT22;10715;48.546;9.896;2024-01-11T00:36:41;-8.00;99.90
21115;DHT22;10715;48.546;9.896;2024-01-11T00:39:07;-8.10;99.90
21115;DHT22;10715;48.546;9.896;2024-01-11T00:41:33;-8.10;99.90
21115;DHT22;10715;48.546;9.896;2024-01-11T00:43:58;-8.10;99.90
21115;DHT22;10715;48.546;9.896;2024-01-11T00:46:24;-8.20;99.90
21115;DHT22;10715;48.546;9.896;2024-01-11T00:48:50;-8.20;99.90
21115;DHT22;10715;48.546;9.896;2024-01-11T00:51:15;-8.20;99.90
21115;DHT22;10715;48.546;9.896;2024-01-11T00:53:41;-8.20;99.90
21115;DHT22;10715;48.546;9.896;2024-01-11T00:56:18;-8.20;99.90
21115;DHT22;10715;48.546;9.896;2024-01-11T00:58:45;-8.20;99.90
21115;DHT22;10715;48.546;9.896;2024-01-11T01:01:11;-8.20;99.90
21115;DHT22;10715;48.546;9.896;2024-01-11T01:03:38;-8.30;99.90
21115;DHT22;10715;48.546;9.896;2024-01-11T01:06:04;-8.30;99.90
21115;DHT22;10715;48.546;9.896;2024-01-11T01:08:30;-8.30;99.90
21115;DHT22;10715;48.546;9.896;2024-01-11T01:10:56;-8.30;99.90
21115;DHT22;10715;48.546;9.896;2024-01-11T01:13:21;-8.30;99.90
21115;DHT22;10715;48.546;9.896;2024-01-11T01:15:47;-8.30;99.90
21115;DHT22;10715;48.546;9.896;2024-01-11T01:18:14;-8.40;99.90
21115;DHT22;10715;48.546;9.896;2024-01-11T01:20:40;-8.40;99.90
21115;DHT22;10715;48.546;9.896;2024-01-11T01:23:05;-8.40;99.90
21115;DHT22;10715;48.546;9.896;2024-01-11T01:25:31;-8.40;99.90
21115;DHT22;10715;48.546;9.896;2024-01-11T01:28:00;-8.40;99.90
21115;DHT22;10715;48.546;9.896;2024-01-11T01:30:27;-8.40;99.90
21115;DHT22;10715;48.546;9.896;2024-01-11T01:32:53;-8.40;99.90
21115;DHT22;10715;48.546;9.896;2024-01-11T01:35:19;-8.40;99.90
21115;DHT22;10715;48.546;9.896;2024-01-11T01:37:45;-8.40;99.90
21115;DHT22;10715;48.546;9.896;2024-01-11T01:40:11;-8.40;99.90
21115;DHT22;10715;48.546;9.896;2024-01-11T01:42:46;-8.40;99.90
21115;DHT22;10715;48.546;9.896;2024-01-11T01:45:12;-8.40;99.90
21115;DHT22;10715;48.546;9.896;2024-01-11T01:47:40;-8.40;99.90
21115;DHT22;10715;48.546;9.896;2024-01-11T01:50:07;-8.30;99.90
21115;DHT22;10715;48.546;9.896;2024-01-11T01:52:33;-8.30;99.90
21115;DHT22;10715;48.546;9.896;2024-01-11T01:55:01;-8.30;99.90
21115;DHT22;10715;48.546;9.896;2024-01-11T01:57:28;-8.40;99.90
21115;DHT22;10715;48.546;9.896;2024-01-11T01:59:55;-8.40;99.90
21115;DHT22;10715;48.546;9.896;2024-01-11T02:02:21;-8.40;99.90
21115;DHT22;10715;48.546;9.896;2024-01-11T02:04:47;-8.40;99.90
21115;DHT22;10715;48.546;9.896;2024-01-11T02:07:13;-8.40;99.90
21115;DHT22;10715;48.546;9.896;2024-01-11T02:09:40;-8.40;99.90
21115;DHT22;10715;48.546;9.896;2024-01-11T02:12:06;-8.50;99.90
21115;DHT22;10715;48.546;9.896;2024-01-11T02:14:34;-8.50;99.90
21115;DHT22;10715;48.546;9.896;2024-01-11T02:17:02;-8.50;99.90
21115;DHT22;10715;48.546;9.896;2024-01-11T02:19:28;-8.50;99.90
21115;DHT22;10715;48.546;9.896;2024-01-11T02:21:54;-8.60;99.90
21115;DHT22;10715;48.546;9.896;2024-01-11T02:24:21;-8.60;99.90
21115;DHT22;10715;48.546;9.896;2024-01-11T02:27:03;-8.60;99.90
21115;DHT22;10715;48.546;9.896;2024-01-11T02:29:31;-8.60;99.90
21115;DHT22;10715;48.546;9.896;2024-01-11T02:31:58;-8.60;99.90
21115;DHT22;10715;48.546;9.896;2024-01-11T02:34:25;-8.70;99.90
21115;DHT22;10715;48.546;9.896;2024-01-11T02:36:56;-8.70;99.90
21115;DHT22;10715;48.546;9.896;2024-01-11T02:39:23;-8.70;99.90
21115;DHT22;10715;48.546;9.896;2024-01-11T02:41:50;-8.70;99.90
21115;DHT22;10715;48.546;9.896;2024-01-11T02:44:16;-8.70;99.90
21115;DHT22;10715;48.546;9.896;2024-01-11T02:46:42;-8.70;99.90
21115;DHT22;10715;48.546;9.896;2024-01-11T02:49:07;-8.70;99.90
21115;DHT22;10715;48.546;9.896;2024-01-11T02:51:33;-8.70;99.90
21115;DHT22;10715;48.546;9.896;2024-01-11T02:53:59;-8.70;99.90
21115;DHT22;10715;48.546;9.896;2024-01-11T02:56:25;-8.70;99.90
21115;DHT22;10715;48.546;9.896;2024-01-11T02:58:50;-8.70;99.90
21115;DHT22;10715;48.546;9.896;2024-01-11T03:01:16;-8.70;99.90
21115;DHT22;10715;48.546;9.896;2024-01-11T03:03:42;-8.70;99.90
21115;DHT22;10715;48.546;9.896;2024-01-11T03:06:07;-8.60;99.90
21115;DHT22;10715;48.546;9.896;2024-01-11T03:08:33;-8.60;99.90
21115;DHT22;10715;48.546;9.896;2024-01-11T03:10:59;-8.60;99.90
21115;DHT22;10715;48.546;9.896;2024-01-11T03:13:24;-8.60;99.90
21115;DHT22;10715;48.546;9.896;2024-01-11T03:15:50;-8.70;99.90
21115;DHT22;10715;48.546;9.896;2024-01-11T03:18:16;-8.70;99.90
21115;DHT22;10715;48.546;9.896;2024-01-11T03:20:41;-8.70;99.90
21115;DHT22;10715;48.546;9.896;2024-01-11T03:23:07;-8.70;99.90
21115;DHT22;10715;48.546;9.896;2024-01-11T03:25:33;-8.70;99.90
21115;DHT22;10715;48.546;9.896;2024-01-11T03:27:59;-8.70;99.90
21115;DHT22;10715;48.546;9.896;2024-01-11T03:30:25;-8.70;99.90
21115;DHT22;10715;48.546;9.896;2024-01-11T03:32:51;-8.70;99.90
21115;DHT22;10715;48.546;9.896;2024-01-11T03:35:18;-8.60;99.90
21115;DHT22;10715;48.546;9.896;2024-01-11T03:37:44;-8.60;99.90
21115;DHT22;10715;48.546;9.896;2024-01-11T03:40:10;-8.60;99.90
21115;DHT22;10715;48.546;9.896;2024-01-11T03:42:35;-8.60;99.90
21115;DHT22;10715;48.546;9.896;2024-01-11T03:45:01;-8.60;99.90
21115;DHT22;10715;48.546;9.896;2024-01-11T03:47:27;-8.50;99.90
21115;DHT22;10715;48.546;9.896;2024-01-11T03:49:52;-8.50;99.90
21115;DHT22;10715;48.546;9.896;2024-01-11T03:52:18;-8.50;99.90
21115;DHT22;10715;48.546;9.896;2024-01-11T03:54:44;-8.50;99.90
21115;DHT22;10715;48.546;9.896;2024-01-11T03:57:10;-8.50;99.90
21115;DHT22;10715;48.546;9.896;2024-01-11T03:59:36;-8.50;99.90
21115;DHT22;10715;48.546;9.896;2024-01-11T04:02:01;-8.50;99.90
21115;DHT22;10715;48.546;9.896;2024-01-11T04:04:27;-8.50;99.90
21115;DHT22;10715;48.546;9.896;2024-01-11T04:06:53;-8.50;99.90
21115;DHT22;10715;48.546;9.896;2024-01-11T04:09:18;-8.50;99.90
21115;DHT22;10715;48.546;9.896;2024-01-11T04:11:46;-8.60;99.90
21115;DHT22;10715;48.546;9.896;2024-01-11T04:14:12;-8.60;99.90
21115;DHT22;10715;48.546;9.896;2024-01-11T04:16:42;-8.60;99.90
21115;DHT22;10715;48.546;9.896;2024-01-11T04:19:08;-8.60;99.90
21115;DHT22;10715;48.546;9.896;2024-01-11T04:21:34;-8.60;99.90
21115;DHT22;10715;48.546;9.896;2024-01-11T04:24:00;-8.70;99.90
21115;DHT22;10715;48.546;9.896;2024-01-11T04:26:26;-8.70;99.90
21115;DHT22;10715;48.546;9.896;2024-01-11T04:28:52;-8.70;99.90
21115;DHT22;10715;48.546;9.896;2024-01-11T04:31:19;-8.70;99.90
21115;DHT22;10715;48.546;9.896;2024-01-11T04:33:45;-8.70;99.90
21115;DHT22;10715;48.546;9.896;2024-01-11T04:36:12;-8.70;99.90
21115;DHT22;10715;48.546;9.896;2024-01-11T04:38:38;-8.80;99.90
21115;DHT22;10715;48.546;9.896;2024-01-11T04:41:12;-8.80;99.90
21115;DHT22;10715;48.546;9.896;2024-01-11T04:43:44;-8.80;99.90
21115;DHT22;10715;48.546;9.896;2024-01-11T04:46:18;-8.80;99.90
21115;DHT22;10715;48.546;9.896;2024-01-11T04:48:44;-8.80;99.90
21115;DHT22;10715;48.546;9.896;2024-01-11T04:51:11;-8.80;99.90
21115;DHT22;10715;48.546;9.896;2024-01-11T04:53:41;-8.80;99.90
21115;DHT22;10715;48.546;9.896;2024-01-11T04:56:08;-8.80;99.90
21115;DHT22;10715;48.546;9.896;2024-01-11T04:58:39;-8.90;99.90
21115;DHT22;10715;48.546;9.896;2024-01-11T05:01:06;-8.90;99.90
21115;DHT22;10715;48.546;9.896;2024-01-11T05:03:32;-8.90;99.90
21115;DHT22;10715;48.546;9.896;2024-01-11T05:05:58;-8.90;99.90
21115;DHT22;10715;48.546;9.896;2024-01-11T05:08:25;-8.80;99.90
21115;DHT22;10715;48.546;9.896;2024-01-11T05:10:51;-8.80;99.90
21115;DHT22;10715;48.546;9.896;2024-01-11T05:13:18;-8.80;99.90
21115;DHT22;10715;48.546;9.896;2024-01-11T05:15:44;-8.80;99.90
21115;DHT22;10715;48.546;9.896;2024-01-11T05:18:10;-8.80;99.90
21115;DHT22;10715;48.546;9.896;2024-01-11T05:20:36;-8.90;99.90
21115;DHT22;10715;48.546;9.896;2024-01-11T05:23:02;-8.90;99.90
21115;DHT22;10715;48.546;9.896;2024-01-11T05:25:29;-8.90;99.90
21115;DHT22;10715;48.546;9.896;2024-01-11T05:27:56;-8.90;99.90
21115;DHT22;10715;48.546;9.896;2024-01-11T05:30:22;-8.90;99.90
21115;DHT22;10715;48.546;9.896;2024-01-11T05:32:48;-9.00;99.90
21115;DHT22;10715;48.546;9.896;2024-01-11T05:35:14;-9.00;99.90
21115;DHT22;10715;48.546;9.896;2024-01-11T05:37:39;-9.00;99.90
21115;DHT22;10715;48.546;9.896;2024-01-11T05:40:06;-9.00;99.90
21115;DHT22;10715;48.546;9.896;2024-01-11T05:42:33;-9.00;99.90
21115;DHT22;10715;48.546;9.896;2024-01-11T05:44:59;-9.00;99.90
21115;DHT22;10715;48.546;9.896;2024-01-11T05:47:25;-9.00;99.90
21115;DHT22;10715;48.546;9.896;2024-01-11T05:49:51;-9.00;99.90
21115;DHT22;10715;48.546;9.896;2024-01-11T05:52:16;-9.00;99.90
21115;DHT22;10715;48.546;9.896;2024-01-11T05:54:42;-9.00;99.90
21115;DHT22;10715;48.546;9.896;2024-01-11T05:57:08;-9.00;99.90
21115;DHT22;10715;48.546;9.896;2024-01-11T05:59:34;-9.00;99.90
21115;DHT22;10715;48.546;9.896;2024-01-11T06:01:59;-9.00;99.90
21115;DHT22;10715;48.546;9.896;2024-01-11T06:04:27;-9.00;99.90
21115;DHT22;10715;48.546;9.896;2024-01-11T06:06:53;-9.00;99.90
21115;DHT22;10715;48.546;9.896;2024-01-11T06:09:18;-9.00;99.90
21115;DHT22;10715;48.546;9.896;2024-01-11T06:11:44;-9.00;99.90
21115;DHT22;10715;48.546;9.896;2024-01-11T06:14:10;-9.00;99.90
21115;DHT22;10715;48.546;9.896;2024-01-11T06:16:35;-9.00;99.90
21115;DHT22;10715;48.546;9.896;2024-01-11T06:19:01;-9.00;99.90
21115;DHT22;10715;48.546;9.896;2024-01-11T06:21:27;-9.00;99.90
21115;DHT22;10715;48.546;9.896;2024-01-11T06:23:53;-9.00;99.90
21115;DHT22;10715;48.546;9.896;2024-01-11T06:26:19;-9.00;99.90
21115;DHT22;10715;48.546;9.896;2024-01-11T06:28:45;-9.00;99.90
21115;DHT22;10715;48.546;9.896;2024-01-11T06:31:11;-9.00;99.90
21115;DHT22;10715;48.546;9.896;2024-01-11T06:33:37;-9.00;99.90
21115;DHT22;10715;48.546;9.896;2024-01-11T06:36:05;-9.00;99.90
21115;DHT22;10715;48.546;9.896;2024-01-11T06:38:33;-9.00;99.90
21115;DHT22;10715;48.546;9.896;2024-01-11T06:40:59;-9.00;99.90
21115;DHT22;10715;48.546;9.896;2024-01-11T06:43:25;-9.00;99.90
21115;DHT22;10715;48.546;9.896;2024-01-11T06:45:51;-9.10;99.90
21115;DHT22;10715;48.546;9.896;2024-01-11T06:48:17;-9.10;99.90
21115;DHT22;10715;48.546;9.896;2024-01-11T06:50:43;-9.10;99.90
21115;DHT22;10715;48.546;9.896;2024-01-11T06:53:09;-9.10;99.90
21115;DHT22;10715;48.546;9.896;2024-01-11T06:55:35;-9.10;99.90
21115;DHT22;10715;48.546;9.896;2024-01-11T06:58:00;-9.10;99.90
21115;DHT22;10715;48.546;9.896;2024-01-11T07:00:27;-9.10;99.90
21115;DHT22;10715;48.546;9.896;2024-01-11T07:02:53;-9.10;99.90
21115;DHT22;10715;48.546;9.896;2024-01-11T07:05:19;-9.10;99.90
21115;DHT22;10715;48.546;9.896;2024-01-11T07:07:45;-9.10;99.90
21115;DHT22;10715;48.546;9.896;2024-01-11T07:10:11;-9.10;99.90
21115;DHT22;10715;48.546;9.896;2024-01-11T07:12:38;-9.10;99.90
21115;DHT22;10715;48.546;9.896;2024-01-11T07:15:06;-9.00;99.90
21115;DHT22;10715;48.546;9.896;2024-01-11T07:17:33;-9.00;99.90
21115;DHT22;10715;48.546;9.896;2024-01-11T07:19:59;-9.00;99.90
21115;DHT22;10715;48.546;9.896;2024-01-11T07:22:25;-9.10;99.90
21115;DHT22;10715;48.546;9.896;2024-01-11T07:24:51;-9.10;99.90
21115;DHT22;10715;48.546;9.896;2024-01-11T07:27:17;-9.10;99.90
21115;DHT22;10715;48.546;9.896;2024-01-11T07:29:43;-9.00;99.90
21115;DHT22;10715;48.546;9.896;2024-01-11T07:32:08;-9.00;99.90
21115;DHT22;10715;48.546;9.896;2024-01-11T07:34:34;-9.00;99.90
21115;DHT22;10715;48.546;9.896;2024-01-11T07:37:00;-9.00;99.90
21115;DHT22;10715;48.546;9.896;2024-01-11T07:39:25;-9.00;99.90
21115;DHT22;10715;48.546;9.896;2024-01-11T07:41:51;-9.00;99.90
21115;DHT22;10715;48.546;9.896;2024-01-11T07:44:18;-9.00;99.90
21115;DHT22;10715;48.546;9.896;2024-01-11T07:46:44;-9.00;99.90
21115;DHT22;10715;48.546;9.896;2024-01-11T07:49:09;-9.00;99.90
21115;DHT22;10715;48.546;9.896;2024-01-11T07:51:36;-9.00;99.90
21115;DHT22;10715;48.546;9.896;2024-01-11T07:54:01;-9.00;99.90
21115;DHT22;10715;48.546;9.896;2024-01-11T07:56:28;-9.00;99.90
21115;DHT22;10715;48.546;9.896;2024-01-11T07:58:54;-9.00;99.90
21115;DHT22;10715;48.546;9.896;2024-01-11T08:01:20;-8.90;99.90
21115;DHT22;10715;48.546;9.896;2024-01-11T08:03:46;-8.90;99.90
21115;DHT22;10715;48.546;9.896;2024-01-11T08:06:12;-9.00;99.90
21115;DHT22;10715;48.546;9.896;2024-01-11T08:08:38;-8.90;99.90
21115;DHT22;10715;48.546;9.896;2024-01-11T08:11:10;-8.90;99.90
21115;DHT22;10715;48.546;9.896;2024-01-11T08:13:38;-8.90;99.90
21115;DHT22;10715;48.546;9.896;2024-01-11T08:16:04;-8.90;99.90
21115;DHT22;10715;48.546;9.896;2024-01-11T08:18:32;-8.80;99.90
21115;DHT22;10715;48.546;9.896;2024-01-11T08:20:58;-8.80;99.90
21115;DHT22;10715;48.546;9.896;2024-01-11T08:23:24;-8.80;99.90
21115;DHT22;10715;48.546;9.896;2024-01-11T08:25:49;-8.80;99.90
21115;DHT22;10715;48.546;9.896;2024-01-11T08:28:15;-8.80;99.90
21115;DHT22;10715;48.546;9.896;2024-01-11T08:30:41;-8.70;99.90
21115;DHT22;10715;48.546;9.896;2024-01-11T08:33:08;-8.70;99.90
21115;DHT22;10715;48.546;9.896;2024-01-11T08:35:34;-8.60;99.90
21115;DHT22;10715;48.546;9.896;2024-01-11T08:38:00;-8.50;99.90
21115;DHT22;10715;48.546;9.896;2024-01-11T08:40:26;-8.50;99.90
21115;DHT22;10715;48.546;9.896;2024-01-11T08:42:52;-8.50;99.90
21115;DHT22;10715;48.546;9.896;2024-01-11T08:45:18;-8.40;99.90
21115;DHT22;10715;48.546;9.896;2024-01-11T08:47:46;-8.40;99.90
21115;DHT22;10715;48.546;9.896;2024-01-11T08:50:16;-8.40;99.90
21115;DHT22;10715;48.546;9.896;2024-01-11T08:52:43;-8.30;99.90
21115;DHT22;10715;48.546;9.896;2024-01-11T08:55:09;-8.30;99.90
21115;DHT22;10715;48.546;9.896;2024-01-11T08:57:35;-8.20;99.90
21115;DHT22;10715;48.546;9.896;2024-01-11T09:00:02;-8.20;99.90
21115;DHT22;10715;48.546;9.896;2024-01-11T09:02:29;-8.10;99.90
21115;DHT22;10715;48.546;9.896;2024-01-11T09:04:55;-8.10;99.90
21115;DHT22;10715;48.546;9.896;2024-01-11T09:07:20;-8.00;99.90
21115;DHT22;10715;48.546;9.896;2024-01-11T09:09:46;-7.90;99.90
21115;DHT22;10715;48.546;9.896;2024-01-11T09:12:12;-7.90;99.90
21115;DHT22;10715;48.546;9.896;2024-01-11T09:14:38;-7.80;99.90
21115;DHT22;10715;48.546;9.896;2024-01-11T09:17:05;-7.80;99.90
21115;DHT22;10715;48.546;9.896;2024-01-11T09:19:32;-7.70;99.90
21115;DHT22;10715;48.546;9.896;2024-01-11T09:21:59;-7.60;99.90
21115;DHT22;10715;48.546;9.896;2024-01-11T09:24:25;-7.50;99.90
21115;DHT22;10715;48.546;9.896;2024-01-11T09:26:51;-7.50;99.90
21115;DHT22;10715;48.546;9.896;2024-01-11T09:29:17;-7.30;99.90
21115;DHT22;10715;48.546;9.896;2024-01-11T09:31:43;-7.30;99.90
21115;DHT22;10715;48.546;9.896;2024-01-11T09:34:08;-7.20;99.90
21115;DHT22;10715;48.546;9.896;2024-01-11T09:36:34;-7.10;99.90
21115;DHT22;10715;48.546;9.896;2024-01-11T09:39:00;-7.00;99.90
21115;DHT22;10715;48.546;9.896;2024-01-11T09:44:00;-6.70;99.90
21115;DHT22;10715;48.546;9.896;2024-01-11T09:46:27;-6.60;99.90
21115;DHT22;10715;48.546;9.896;2024-01-11T09:48:54;-6.50;99.90
21115;DHT22;10715;48.546;9.896;2024-01-11T09:51:21;-6.40;99.90
21115;DHT22;10715;48.546;9.896;2024-01-11T09:53:47;-6.30;99.90
21115;DHT22;10715;48.546;9.896;2024-01-11T09:56:14;-6.20;99.90
21115;DHT22;10715;48.546;9.896;2024-01-11T09:58:45;-6.10;99.90
21115;DHT22;10715;48.546;9.896;2024-01-11T10:01:13;-6.00;99.90
21115;DHT22;10715;48.546;9.896;2024-01-11T10:03:40;-5.80;99.90
21115;DHT22;10715;48.546;9.896;2024-01-11T10:06:07;-5.70;99.90
21115;DHT22;10715;48.546;9.896;2024-01-11T10:08:35;-5.60;99.90
21115;DHT22;10715;48.546;9.896;2024-01-11T10:11:01;-5.50;99.90
21115;DHT22;10715;48.546;9.896;2024-01-11T10:13:29;-5.40;99.90
21115;DHT22;10715;48.546;9.896;2024-01-11T10:16:05;-5.30;99.90
21115;DHT22;10715;48.546;9.896;2024-01-11T10:18:32;-5.30;99.90
21115;DHT22;10715;48.546;9.896;2024-01-11T10:20:57;-5.30;99.90
21115;DHT22;10715;48.546;9.896;2024-01-11T10:23:23;-5.20;99.90
21115;DHT22;10715;48.546;9.896;2024-01-11T10:25:49;-5.20;99.90
21115;DHT22;10715;48.546;9.896;2024-01-11T10:28:15;-5.10;99.90
21115;DHT22;10715;48.546;9.896;2024-01-11T10:30:42;-5.10;99.90
21115;DHT22;10715;48.546;9.896;2024-01-11T10:33:10;-5.10;99.90
21115;DHT22;10715;48.546;9.896;2024-01-11T10:35:36;-5.00;99.90
21115;DHT22;10715;48.546;9.896;2024-01-11T10:38:06;-5.00;99.90
21115;DHT22;10715;48.546;9.896;2024-01-11T10:40:33;-4.90;99.90
21115;DHT22;10715;48.546;9.896;2024-01-11T10:43:01;-4.90;99.90
21115;DHT22;10715;48.546;9.896;2024-01-11T10:45:28;-4.80;99.90
21115;DHT22;10715;48.546;9.896;2024-01-11T10:48:01;-4.80;99.90
21115;DHT22;10715;48.546;9.896;2024-01-11T10:50:30;-4.80;99.90
21115;DHT22;10715;48.546;9.896;2024-01-11T10:53:16;-4.70;99.90
21115;DHT22;10715;48.546;9.896;2024-01-11T10:55:45;-4.70;99.90
21115;DHT22;10715;48.546;9.896;2024-01-11T10:58:11;-4.70;99.90
21115;DHT22;10715;48.546;9.896;2024-01-11T11:00:37;-4.60;99.90
21115;DHT22;10715;48.546;9.896;2024-01-11T11:03:05;-4.60;99.90
21115;DHT22;10715;48.546;9.896;2024-01-11T11:05:32;-4.50;99.90
21115;DHT22;10715;48.546;9.896;2024-01-11T11:08:01;-4.50;99.90
21115;DHT22;10715;48.546;9.896;2024-01-11T11:10:28;-4.50;99.90
21115;DHT22;10715;48.546;9.896;2024-01-11T11:12:54;-4.50;99.90
21115;DHT22;10715;48.546;9.896;2024-01-11T11:15:27;-4.50;99.90
21115;DHT22;10715;48.546;9.896;2024-01-11T11:17:53;-4.40;99.90
21115;DHT22;10715;48.546;9.896;2024-01-11T11:20:19;-4.40;99.90
21115;DHT22;10715;48.546;9.896;2024-01-11T11:23:07;-4.30;99.90
21115;DHT22;10715;48.546;9.896;2024-01-11T11:25:34;-4.30;99.90
21115;DHT22;10715;48.546;9.896;2024-01-11T11:28:00;-4.30;99.90
21115;DHT22;10715;48.546;9.896;2024-01-11T11:30:32;-4.30;99.90
21115;DHT22;10715;48.546;9.896;2024-01-11T11:33:00;-4.30;99.90
21115;DHT22;10715;48.546;9.896;2024-01-11T11:35:32;-4.30;99.90
21115;DHT22;10715;48.546;9.896;2024-01-11T11:37:58;-4.20;99.90
21115;DHT22;10715;48.546;9.896;2024-01-11T11:40:39;-4.20;99.90
21115;DHT22;10715;48.546;9.896;2024-01-11T11:43:06;-4.20;99.90
21115;DHT22;10715;48.546;9.896;2024-01-11T11:45:32;-4.20;99.90
21115;DHT22;10715;48.546;9.896;2024-01-11T11:47:58;-4.20;99.90
21115;DHT22;10715;48.546;9.896;2024-01-11T11:50:24;-4.20;99.90
21115;DHT22;10715;48.546;9.896;2024-01-11T11:52:57;-4.20;99.90
21115;DHT22;10715;48.546;9.896;2024-01-11T11:55:26;-4.10;99.90
21115;DHT22;10715;48.546;9.896;2024-01-11T11:57:52;-4.10;99.90
21115;DHT22;10715;48.546;9.896;2024-01-11T12:00:24;-4.10;99.90
21115;DHT22;10715;48.546;9.896;2024-01-11T12:02:50;-4.00;99.90
21115;DHT22;10715;48.546;9.896;2024-01-11T12:05:19;-4.00;99.90
21115;DHT22;10715;48.546;9.896;2024-01-11T12:07:45;-3.90;99.90
21115;DHT22;10715;48.546;9.896;2024-01-11T12:10:11;-3.90;99.90
21115;DHT22;10715;48.546;9.896;2024-01-11T12:12:37;-3.80;99.90
21115;DHT22;10715;48.546;9.896;2024-01-11T12:15:04;-3.70;99.90
21115;DHT22;10715;48.546;9.896;2024-01-11T12:17:30;-3.60;99.90
21115;DHT22;10715;48.546;9.896;2024-01-11T12:19:56;-3.60;99.90
21115;DHT22;10715;48.546;9.896;2024-01-11T12:22:23;-3.50;99.90
21115;DHT22;10715;48.546;9.896;2024-01-11T12:24:49;-3.50;99.90
21115;DHT22;10715;48.546;9.896;2024-01-11T12:27:15;-3.40;99.90
21115;DHT22;10715;48.546;9.896;2024-01-11T12:29:41;-3.30;99.90
21115;DHT22;10715;48.546;9.896;2024-01-11T12:32:08;-3.30;99.90
21115;DHT22;10715;48.546;9.896;2024-01-11T12:34:36;-3.20;99.90
21115;DHT22;10715;48.546;9.896;2024-01-11T12:37:02;-3.20;99.90
21115;DHT22;10715;48.546;9.896;2024-01-11T12:39:31;-3.10;99.90
21115;DHT22;10715;48.546;9.896;2024-01-11T12:41:56;-3.00;99.90
21115;DHT22;10715;48.546;9.896;2024-01-11T12:44:23;-3.00;99.90
21115;DHT22;10715;48.546;9.896;2024-01-11T12:46:49;-2.90;99.90
21115;DHT22;10715;48.546;9.896;2024-01-11T12:49:15;-2.90;99.90
21115;DHT22;10715;48.546;9.896;2024-01-11T12:51:41;-2.80;99.90
21115;DHT22;10715;48.546;9.896;2024-01-11T12:54:12;-2.80;99.90
21115;DHT22;10715;48.546;9.896;2024-01-11T12:56:42;-2.80;99.90
21115;DHT22;10715;48.546;9.896;2024-01-11T12:59:09;-2.70;99.90
21115;DHT22;10715;48.546;9.896;2024-01-11T13:01:36;-2.70;99.90
21115;DHT22;10715;48.546;9.896;2024-01-11T13:04:02;-2.70;99.90
21115;DHT22;10715;48.546;9.896;2024-01-11T13:06:30;-2.70;99.90
21115;DHT22;10715;48.546;9.896;2024-01-11T13:08:56;-2.70;99.90
21115;DHT22;10715;48.546;9.896;2024-01-11T13:11:22;-2.70;99.90
21115;DHT22;10715;48.546;9.896;2024-01-11T13:13:50;-2.70;99.90
21115;DHT22;10715;48.546;9.896;2024-01-11T13:16:19;-2.60;99.90
21115;DHT22;10715;48.546;9.896;2024-01-11T13:18:45;-2.60;99.90
21115;DHT22;10715;48.546;9.896;2024-01-11T13:21:11;-2.60;99.90
21115;DHT22;10715;48.546;9.896;2024-01-11T13:23:40;-2.60;99.90
21115;DHT22;10715;48.546;9.896;2024-01-11T13:26:07;-2.50;99.90
21115;DHT22;10715;48.546;9.896;2024-01-11T13:28:35;-2.50;99.90
21115;DHT22;10715;48.546;9.896;2024-01-11T13:31:01;-2.50;99.90
21115;DHT22;10715;48.546;9.896;2024-01-11T13:33:28;-2.50;99.90
21115;DHT22;10715;48.546;9.896;2024-01-11T13:35:54;-2.50;99.90
21115;DHT22;10715;48.546;9.896;2024-01-11T13:38:20;-2.40;99.90
21115;DHT22;10715;48.546;9.896;2024-01-11T13:40:45;-2.40;99.90
21115;DHT22;10715;48.546;9.896;2024-01-11T13:43:11;-2.40;99.90
21115;DHT22;10715;48.546;9.896;2024-01-11T13:45:37;-2.40;99.90
21115;DHT22;10715;48.546;9.896;2024-01-11T13:48:03;-2.40;99.90
21115;DHT22;10715;48.546;9.896;2024-01-11T13:50:29;-2.40;99.90
21115;DHT22;10715;48.546;9.896;2024-01-11T13:52:55;-2.40;99.90
21115;DHT22;10715;48.546;9.896;2024-01-11T13:55:21;-2.40;99.90
21115;DHT22;10715;48.546;9.896;2024-01-11T13:57:49;-2.30;99.90
21115;DHT22;10715;48.546;9.896;2024-01-11T14:00:15;-2.30;99.90
21115;DHT22;10715;48.546;9.896;2024-01-11T14:02:43;-2.30;99.90
21115;DHT22;10715;48.546;9.896;2024-01-11T14:05:10;-2.30;99.90
21115;DHT22;10715;48.546;9.896;2024-01-11T14:07:39;-2.30;99.90
21115;DHT22;10715;48.546;9.896;2024-01-11T14:10:06;-2.30;99.90
21115;DHT22;10715;48.546;9.896;2024-01-11T14:12:34;-2.30;99.90
21115;DHT22;10715;48.546;9.896;2024-01-11T14:15:01;-2.20;99.90
21115;DHT22;10715;48.546;9.896;2024-01-11T14:17:26;-2.20;99.90
21115;DHT22;10715;48.546;9.896;2024-01-11T14:19:52;-2.20;99.90
21115;DHT22;10715;48.546;9.896;2024-01-11T14:22:18;-2.20;99.90
21115;DHT22;10715;48.546;9.896;2024-01-11T14:24:43;-2.30;99.90
21115;DHT22;10715;48.546;9.896;2024-01-11T14:27:10;-2.30;99.90
21115;DHT22;10715;48.546;9.896;2024-01-11T14:29:36;-2.30;99.90
21115;DHT22;10715;48.546;9.896;2024-01-11T14:32:02;-2.30;99.90
21115;DHT22;10715;48.546;9.896;2024-01-11T14:34:28;-2.30;99.90
21115;DHT22;10715;48.546;9.896;2024-01-11T14:36:53;-2.30;99.90
21115;DHT22;10715;48.546;9.896;2024-01-11T14:39:19;-2.30;99.90
21115;DHT22;10715;48.546;9.896;2024-01-11T14:41:45;-2.30;99.90
21115;DHT22;10715;48.546;9.896;2024-01-11T14:44:11;-2.30;99.90
21115;DHT22;10715;48.546;9.896;2024-01-11T14:46:37;-2.40;99.90
21115;DHT22;10715;48.546;9.896;2024-01-11T14:49:02;-2.40;99.90
21115;DHT22;10715;48.546;9.896;2024-01-11T14:51:29;-2.40;99.90
21115;DHT22;10715;48.546;9.896;2024-01-11T14:54:02;-2.40;99.90
21115;DHT22;10715;48.546;9.896;2024-01-11T14:56:30;-2.40;99.90
21115;DHT22;10715;48.546;9.896;2024-01-11T14:58:55;-2.50;99.90
21115;DHT22;10715;48.546;9.896;2024-01-11T15:01:21;-2.50;99.90
21115;DHT22;10715;48.546;9.896;2024-01-11T15:03:47;-2.50;99.90
21115;DHT22;10715;48.546;9.896;2024-01-11T15:06:13;-2.50;99.90
21115;DHT22;10715;48.546;9.896;2024-01-11T15:08:39;-2.50;99.90
21115;DHT22;10715;48.546;9.896;2024-01-11T15:11:05;-2.50;99.90
21115;DHT22;10715;48.546;9.896;2024-01-11T15:13:31;-2.50;99.90
21115;DHT22;10715;48.546;9.896;2024-01-11T15:15:57;-2.50;99.90
21115;DHT22;10715;48.546;9.896;2024-01-11T15:18:23;-2.50;99.90
21115;DHT22;10715;48.546;9.896;2024-01-11T15:20:48;-2.50;99.90
21115;DHT22;10715;48.546;9.896;2024-01-11T15:23:15;-2.50;99.90
21115;DHT22;10715;48.546;9.896;2024-01-11T15:25:41;-2.50;99.90
21115;DHT22;10715;48.546;9.896;2024-01-11T15:28:07;-2.50;99.90